Time;durP1;ratioP1;P1;durP2;ratioP2;P2;SDS_P1;SDS_P2;PMS_P1;PMS_P2;Temp;Humidity;BMP_temperature;BMP_pressure;BME280_temperature;BME280_humidity;BME280_pressure;Samples;Min_cycle;Max_cycle;Signal;HPM_P1;HPM_P2
2023/06/21 00:02:59;;;;;;;6.50;3.45;;;;;;;;;;8332196;28;20041;-60
2023/06/21 00:06:59;;;;;;;4.78;3.17;;;;;;;;;;8334617;28;20056;-60
2023/06/21 00:10:59;;;;;;;5.30;3.25;;;;;;;;;;8331981;28;20492;-60
2023/06/21 00:14:59;;;;;;;3.72;3.35;;;;;;;;;;8336990;28;20654;-60
2023/06/21 00:18:59;;;;;;;4.82;3.30;;;;;;;;;;8330384;28;20079;-60
2023/06/21 00:23:00;;;;;;;4.63;3.17;;;;;;;;;;8333354;28;20024;-60
2023/06/21 00:27:00;;;;;;;3.85;3.45;;;;;;;;;;8338703;28;20025;-60
2023/06/21 00:31:00;;;;;;;5.97;3.50;;;;;;;;;;8332844;28;20083;-60
2023/06/21 00:35:00;;;;;;;5.72;3.25;;;;;;;;;;8331733;28;20084;-60
2023/06/21 00:39:01;;;;;;;4.83;3.47;;;;;;;;;;8314877;28;20025;-60
2023/06/21 00:43:01;;;;;;;4.60;3.38;;;;;;;;;;8320652;28;20028;-60
2023/06/21 00:47:02;;;;;;;3.47;2.87;;;;;;;;;;8345639;28;20075;-60
2023/06/21 00:51:02;;;;;;;5.90;3.58;;;;;;;;;;8333286;28;20282;-60
2023/06/21 00:55:03;;;;;;;6.13;3.40;;;;;;;;;;8332679;28;20066;-60
2023/06/21 00:59:04;;;;;;;4.80;3.25;;;;;;;;;;8332716;28;20143;-60
2023/06/21 01:03:04;;;;;;;5.45;3.20;;;;;;;;;;8333626;28;20416;-60
2023/06/21 01:07:04;;;;;;;4.82;3.47;;;;;;;;;;8335115;28;20020;-60
2023/06/21 01:11:20;;;;;;;5.20;3.25;;;;;;;;;;8335725;28;20418;-60
2023/06/21 01:15:25;;;;;;;3.50;3.20;;;;;;;;;;8330906;28;20953;-61
2023/06/21 01:19:28;;;;;;;6.40;3.42;;;;;;;;;;8339392;28;20032;-60
2023/06/21 01:23:51;;;;;;;4.30;3.08;;;;;;;;;;8335885;28;20025;-60
2023/06/21 01:28:10;;;;;;;4.03;3.42;;;;;;;;;;8293283;28;20068;-60
2023/06/21 01:32:11;;;;;;;6.63;3.85;;;;;;;;;;8341967;28;20040;-60
2023/06/21 01:36:11;;;;;;;4.57;3.40;;;;;;;;;;8335423;28;20024;-60
2023/06/21 01:40:11;;;;;;;4.00;3.53;;;;;;;;;;8339758;28;20798;-60
2023/06/21 01:44:13;;;;;;;4.30;3.33;;;;;;;;;;8339294;28;20043;-61
2023/06/21 01:48:14;;;;;;;4.72;3.58;;;;;;;;;;8337885;28;20287;-61
2023/06/21 01:52:14;;;;;;;5.38;3.67;;;;;;;;;;8345246;28;20036;-60
2023/06/21 01:56:18;;;;;;;3.92;3.53;;;;;;;;;;8339251;28;20109;-60
2023/06/21 02:00:18;;;;;;;;;;;;;;;;;;8341786;28;20116;-60
2023/06/21 02:04:20;;;;;;;4.28;3.47;;;;;;;;;;8339092;28;20785;-60
2023/06/21 02:08:21;;;;;;;7.55;3.50;;;;;;;;;;8341984;28;20109;-60
2023/06/21 02:12:22;;;;;;;4.85;3.72;;;;;;;;;;8336735;28;20032;-60
2023/06/21 02:16:26;;;;;;;6.45;3.70;;;;;;;;;;8336941;28;20855;-60
2023/06/21 02:20:27;;;;;;;4.10;3.70;;;;;;;;;;8337608;28;20021;-60
2023/06/21 02:24:28;;;;;;;5.45;4.00;;;;;;;;;;8342499;28;20123;-60
2023/06/21 02:28:29;;;;;;;5.00;3.47;;;;;;;;;;8334053;28;20032;-60
2023/06/21 02:32:29;;;;;;;4.63;3.47;;;;;;;;;;8337687;28;20051;-61
2023/06/21 02:36:29;;;;;;;4.72;4.03;;;;;;;;;;8336072;28;20096;-61
2023/06/21 02:40:29;;;;;;;8.23;3.55;;;;;;;;;;8316174;28;20032;-60
2023/06/21 02:44:29;;;;;;;6.72;3.90;;;;;;;;;;8334951;28;20151;-60
2023/06/21 02:48:30;;;;;;;10.80;4.05;;;;;;;;;;8335767;28;20071;-61
2023/06/21 02:52:30;;;;;;;3.45;3.15;;;;;;;;;;8336771;28;20058;-60
2023/06/21 02:56:30;;;;;;;3.72;3.30;;;;;;;;;;8341233;28;20017;-60
2023/06/21 03:00:31;;;;;;;5.57;3.30;;;;;;;;;;8340825;28;20052;-61
2023/06/21 03:04:32;;;;;;;3.58;3.00;;;;;;;;;;8336172;28;20032;-60
2023/06/21 03:08:32;;;;;;;3.38;3.08;;;;;;;;;;8335635;28;20611;-60
2023/06/21 03:12:32;;;;;;;8.60;4.00;;;;;;;;;;8336256;28;20024;-61
2023/06/21 03:16:32;;;;;;;7.97;4.20;;;;;;;;;;8335878;28;20041;-60
2023/06/21 03:20:32;;;;;;;7.25;4.95;;;;;;;;;;8335468;28;20064;-60
2023/06/21 03:24:33;;;;;;;6.15;4.78;;;;;;;;;;8335024;28;20122;-60
2023/06/21 03:28:33;;;;;;;7.60;4.95;;;;;;;;;;8337678;28;20036;-60
2023/06/21 03:32:33;;;;;;;5.27;4.77;;;;;;;;;;8342811;28;20040;-60
2023/06/21 03:36:34;;;;;;;6.45;4.82;;;;;;;;;;8335858;28;21059;-61
2023/06/21 03:40:34;;;;;;;6.72;5.00;;;;;;;;;;8335009;28;20031;-61
2023/06/21 03:44:34;;;;;;;7.33;5.20;;;;;;;;;;8338560;28;20040;-60
2023/06/21 03:48:34;;;;;;;6.68;5.20;;;;;;;;;;8333391;28;20072;-60
2023/06/21 03:52:34;;;;;;;5.75;4.97;;;;;;;;;;8334814;28;20025;-61
2023/06/21 03:56:35;;;;;;;7.32;5.00;;;;;;;;;;8334783;28;20134;-61
2023/06/21 04:00:35;;;;;;;6.85;4.57;;;;;;;;;;8333445;28;20060;-61
2023/06/21 04:04:35;;;;;;;7.57;4.80;;;;;;;;;;8334595;28;20033;-60
2023/06/21 04:08:35;;;;;;;6.10;4.90;;;;;;;;;;8338890;28;20024;-60
2023/06/21 04:12:36;;;;;;;6.05;5.43;;;;;;;;;;8340011;28;20016;-60
2023/06/21 04:16:36;;;;;;;8.43;5.07;;;;;;;;;;8334074;28;21229;-60
2023/06/21 04:20:36;;;;;;;5.33;4.67;;;;;;;;;;8334978;28;20064;-60
2023/06/21 04:24:36;;;;;;;6.85;4.80;;;;;;;;;;8334047;28;21271;-60
2023/06/21 04:28:40;;;;;;;7.07;4.93;;;;;;;;;;8334415;28;20029;-60
2023/06/21 04:32:45;;;;;;;7.38;4.43;;;;;;;;;;8333202;28;20290;-61
2023/06/21 04:36:47;;;;;;;6.90;5.20;;;;;;;;;;8333315;28;20024;-60
2023/06/21 04:40:47;;;;;;;7.57;5.40;;;;;;;;;;8335171;28;20056;-60
2023/06/21 04:44:49;;;;;;;9.10;5.50;;;;;;;;;;8336923;28;20066;-61
2023/06/21 04:48:50;;;;;;;8.90;5.82;;;;;;;;;;8327829;28;20048;-61
2023/06/21 04:52:51;;;;;;;7.70;5.25;;;;;;;;;;8327285;28;20050;-61
2023/06/21 04:56:51;;;;;;;7.82;5.35;;;;;;;;;;8338107;28;20028;-61
2023/06/21 05:00:51;;;;;;;11.95;5.40;;;;;;;;;;8332587;28;20086;-61
2023/06/21 05:04:51;;;;;;;10.07;5.50;;;;;;;;;;8331924;28;20029;-60
2023/06/21 05:08:53;;;;;;;8.85;5.43;;;;;;;;;;8337150;28;20596;-60
2023/06/21 05:12:53;;;;;;;8.05;5.35;;;;;;;;;;8334209;28;20023;-60
2023/06/21 05:16:53;;;;;;;8.70;6.15;;;;;;;;;;8336479;28;20123;-60
2023/06/21 05:20:55;;;;;;;10.43;5.80;;;;;;;;;;8344371;28;20048;-60
2023/06/21 05:24:55;;;;;;;11.02;5.65;;;;;;;;;;8342255;28;20020;-60
2023/06/21 05:28:55;;;;;;;7.28;5.45;;;;;;;;;;8341627;28;20071;-60
2023/06/21 05:32:55;;;;;;;6.60;5.28;;;;;;;;;;8332496;28;20033;-61
2023/06/21 05:36:55;;;;;;;10.20;5.55;;;;;;;;;;8331233;28;20036;-61
2023/06/21 05:40:56;;;;;;;6.90;5.68;;;;;;;;;;8332726;28;20660;-60
2023/06/21 05:44:56;;;;;;;6.45;5.05;;;;;;;;;;8334325;28;20036;-60
2023/06/21 05:48:56;;;;;;;8.95;5.38;;;;;;;;;;8337778;28;20599;-60
2023/06/21 05:52:57;;;;;;;6.63;4.90;;;;;;;;;;8333054;28;20095;-60
2023/06/21 05:56:58;;;;;;;7.15;5.13;;;;;;;;;;8333150;28;20341;-61
2023/06/21 06:00:58;;;;;;;6.27;5.13;;;;;;;;;;8332469;28;20072;-60
2023/06/21 06:04:58;;;;;;;6.25;5.28;;;;;;;;;;8336556;28;20021;-60
2023/06/21 06:08:58;;;;;;;10.82;4.90;;;;;;;;;;8333051;28;20854;-60
2023/06/21 06:12:58;;;;;;;8.70;5.10;;;;;;;;;;8318693;28;20334;-60
2023/06/21 06:16:59;;;;;;;10.25;5.45;;;;;;;;;;8333687;28;20067;-60
2023/06/21 06:20:59;;;;;;;6.13;5.25;;;;;;;;;;8334581;28;20078;-60
2023/06/21 06:24:59;;;;;;;9.98;4.70;;;;;;;;;;8332855;28;20120;-60
2023/06/21 06:29:00;;;;;;;7.73;5.00;;;;;;;;;;8335637;28;20147;-60
2023/06/21 06:33:00;;;;;;;11.35;5.80;;;;;;;;;;8337104;28;20032;-60
2023/06/21 06:37:00;;;;;;;7.88;5.15;;;;;;;;;;8337609;28;20032;-60
2023/06/21 06:41:00;;;;;;;8.32;5.13;;;;;;;;;;8334372;28;20032;-60
2023/06/21 06:45:01;;;;;;;10.13;6.10;;;;;;;;;;8327639;28;20078;-60
2023/06/21 06:49:01;;;;;;;7.38;5.50;;;;;;;;;;8332597;28;20045;-60
2023/06/21 06:53:01;;;;;;;9.25;6.05;;;;;;;;;;8336660;28;20060;-60
2023/06/21 06:57:01;;;;;;;7.72;6.32;;;;;;;;;;8335152;28;20470;-60
2023/06/21 07:01:03;;;;;;;7.97;5.90;;;;;;;;;;8339272;28;20040;-60
2023/06/21 07:05:03;;;;;;;8.73;6.15;;;;;;;;;;8345499;28;20036;-60
2023/06/21 07:09:04;;;;;;;9.88;5.65;;;;;;;;;;8336880;28;20024;-59
2023/06/21 07:13:04;;;;;;;6.70;5.15;;;;;;;;;;8341474;28;20030;-59
2023/06/21 07:17:05;;;;;;;7.55;5.40;;;;;;;;;;8334976;28;20040;-59
2023/06/21 07:21:05;;;;;;;8.13;5.47;;;;;;;;;;8336765;28;20417;-60
2023/06/21 07:25:05;;;;;;;8.20;5.75;;;;;;;;;;8336551;28;20066;-59
2023/06/21 07:29:05;;;;;;;5.90;5.20;;;;;;;;;;8335293;28;20032;-59
2023/06/21 07:33:08;;;;;;;10.93;4.90;;;;;;;;;;8336012;28;20039;-59
2023/06/21 07:37:08;;;;;;;6.93;5.03;;;;;;;;;;8332165;28;20029;-59
2023/06/21 07:41:08;;;;;;;5.55;4.90;;;;;;;;;;8334889;28;20814;-60
2023/06/21 07:45:09;;;;;;;5.50;5.00;;;;;;;;;;8335509;28;20032;-60
2023/06/21 07:49:09;;;;;;;9.27;5.75;;;;;;;;;;8333030;28;20272;-60
2023/06/21 07:53:09;;;;;;;5.80;5.20;;;;;;;;;;8333960;28;20047;-60
2023/06/21 07:57:09;;;;;;;7.97;5.68;;;;;;;;;;8335202;28;20037;-60
2023/06/21 08:01:10;;;;;;;8.07;5.72;;;;;;;;;;8331994;28;20049;-59
2023/06/21 08:05:10;;;;;;;8.88;5.55;;;;;;;;;;8333575;28;20020;-60
2023/06/21 08:09:11;;;;;;;7.17;5.00;;;;;;;;;;8332969;28;20062;-60
2023/06/21 08:13:11;;;;;;;6.32;5.13;;;;;;;;;;8335257;28;20040;-60
2023/06/21 08:17:11;;;;;;;5.30;4.65;;;;;;;;;;8331881;28;20040;-60
2023/06/21 08:21:11;;;;;;;6.22;5.00;;;;;;;;;;8315076;28;20575;-60
2023/06/21 08:25:11;;;;;;;6.93;4.93;;;;;;;;;;8331819;28;20025;-59
2023/06/21 08:29:11;;;;;;;5.63;5.00;;;;;;;;;;8332752;28;20017;-60
2023/06/21 08:33:12;;;;;;;6.05;4.50;;;;;;;;;;8332708;28;20037;-60
2023/06/21 08:37:12;;;;;;;7.13;4.60;;;;;;;;;;8332119;28;20078;-60
2023/06/21 08:41:12;;;;;;;5.45;4.35;;;;;;;;;;8336936;28;20473;-60
2023/06/21 08:45:12;;;;;;;9.30;4.43;;;;;;;;;;8339832;28;20498;-60
2023/06/21 08:49:16;;;;;;;5.32;4.13;;;;;;;;;;8334985;28;20556;-59
2023/06/21 08:53:22;;;;;;;5.47;3.70;;;;;;;;;;8334361;28;20155;-59
2023/06/21 08:57:22;;;;;;;5.40;4.00;;;;;;;;;;8332429;28;20048;-59
2023/06/21 09:01:24;;;;;;;6.32;4.10;;;;;;;;;;8333451;28;20049;-60
2023/06/21 09:05:35;;;;;;;6.82;3.60;;;;;;;;;;8333047;28;20024;-60
2023/06/21 09:09:36;;;;;;;7.28;4.18;;;;;;;;;;8334896;28;20151;-59
2023/06/21 09:13:37;;;;;;;12.57;4.82;;;;;;;;;;8335182;28;20028;-56
2023/06/21 09:17:38;;;;;;;5.82;4.05;;;;;;;;;;8332858;28;20041;-56
2023/06/21 09:21:40;;;;;;;4.73;4.10;;;;;;;;;;8336501;28;20021;-59
2023/06/21 09:25:42;;;;;;;6.25;3.70;;;;;;;;;;8332600;28;20035;-59
2023/06/21 09:29:42;;;;;;;4.07;3.67;;;;;;;;;;8340023;28;20078;-57
2023/06/21 09:33:43;;;;;;;3.83;3.53;;;;;;;;;;8344358;28;20037;-60
2023/06/21 09:37:43;;;;;;;4.63;3.78;;;;;;;;;;8340543;28;20095;-59
2023/06/21 09:41:43;;;;;;;4.03;3.58;;;;;;;;;;8341062;28;20508;-60
2023/06/21 09:45:57;;;;;;;7.20;4.10;;;;;;;;;;8349403;28;20044;-60
2023/06/21 09:49:57;;;;;;;7.60;4.18;;;;;;;;;;8350205;28;20066;-59
2023/06/21 09:53:58;;;;;;;4.82;3.75;;;;;;;;;;8339807;28;20021;-56
2023/06/21 09:58:00;;;;;;;3.60;3.30;;;;;;;;;;8338052;28;20123;-60
2023/06/21 10:02:01;;;;;;;;;;;;;;;;;;8339536;28;20040;-60
2023/06/21 10:06:02;;;;;;;5.50;3.67;;;;;;;;;;8339010;28;20894;-55
2023/06/21 10:10:05;;;;;;;4.15;3.58;;;;;;;;;;8338733;28;20023;-60
2023/06/21 10:14:06;;;;;;;4.03;3.38;;;;;;;;;;8339700;28;20028;-61
2023/06/21 10:18:09;;;;;;;10.77;3.67;;;;;;;;;;8337072;28;20389;-60
2023/06/21 10:22:20;;;;;;;3.88;3.22;;;;;;;;;;8341811;28;20141;-60
2023/06/21 10:26:20;;;;;;;3.90;3.60;;;;;;;;;;8343012;28;20041;-60
2023/06/21 10:30:22;;;;;;;5.20;3.40;;;;;;;;;;8335045;28;20131;-60
2023/06/21 10:34:25;;;;;;;3.58;3.28;;;;;;;;;;8342952;28;20591;-61
2023/06/21 10:38:37;;;;;;;6.95;3.40;;;;;;;;;;8332815;28;20121;-60
2023/06/21 10:42:37;;;;;;;3.47;3.17;;;;;;;;;;8338181;28;20079;-60
2023/06/21 10:46:40;;;;;;;3.87;3.53;;;;;;;;;;8335829;28;20078;-58
2023/06/21 10:50:41;;;;;;;6.25;3.22;;;;;;;;;;8335560;28;20347;-55
2023/06/21 10:54:42;;;;;;;4.63;3.27;;;;;;;;;;8344035;28;20525;-58
2023/06/21 10:58:42;;;;;;;5.35;3.38;;;;;;;;;;8339124;28;20060;-60
2023/06/21 11:02:44;;;;;;;5.90;3.53;;;;;;;;;;8337569;28;20037;-54
2023/06/21 11:06:44;;;;;;;4.13;3.73;;;;;;;;;;8335816;28;20040;-60
2023/06/21 11:10:49;;;;;;;4.57;3.35;;;;;;;;;;8338727;28;20619;-60
2023/06/21 11:14:49;;;;;;;4.13;3.70;;;;;;;;;;8343018;28;20029;-60
2023/06/21 11:18:50;;;;;;;4.40;3.40;;;;;;;;;;8336693;28;20051;-60
2023/06/21 11:22:57;;;;;;;3.95;3.28;;;;;;;;;;8337347;28;20075;-61
2023/06/21 11:27:04;;;;;;;4.13;3.72;;;;;;;;;;8334764;28;20024;-61
2023/06/21 11:31:06;;;;;;;3.53;3.17;;;;;;;;;;8345595;28;20033;-61
2023/06/21 11:35:08;;;;;;;3.70;2.95;;;;;;;;;;8346120;28;20036;-62
2023/06/21 11:39:08;;;;;;;3.97;3.15;;;;;;;;;;8334343;28;20031;-61
2023/06/21 11:43:14;;;;;;;3.45;3.15;;;;;;;;;;8333759;28;20044;-61
2023/06/21 11:47:18;;;;;;;4.68;3.13;;;;;;;;;;8335058;28;20043;-61
2023/06/21 11:51:18;;;;;;;4.13;3.08;;;;;;;;;;8334154;28;20063;-61
2023/06/21 11:55:20;;;;;;;3.00;2.70;;;;;;;;;;8332763;28;20040;-61
2023/06/21 11:59:22;;;;;;;3.40;3.10;;;;;;;;;;8328215;28;20040;-61
2023/06/21 12:03:26;;;;;;;3.38;3.08;;;;;;;;;;8333969;28;20079;-60
2023/06/21 12:07:26;;;;;;;5.28;2.90;;;;;;;;;;8324683;28;20016;-61
2023/06/21 12:11:26;;;;;;;4.20;3.20;;;;;;;;;;8327444;28;20844;-61
2023/06/21 12:15:27;;;;;;;4.03;2.87;;;;;;;;;;8326022;28;20092;-61
2023/06/21 12:19:27;;;;;;;2.90;2.70;;;;;;;;;;8329084;28;20140;-60
2023/06/21 12:23:28;;;;;;;2.97;2.77;;;;;;;;;;8328271;28;20025;-61
2023/06/21 12:27:28;;;;;;;3.13;2.92;;;;;;;;;;8331535;28;20029;-61
2023/06/21 12:31:30;;;;;;;4.10;2.83;;;;;;;;;;8304058;28;20513;-60
2023/06/21 12:35:30;;;;;;;;;;;;;;;;;;8334767;28;20071;-61
2023/06/21 12:39:30;;;;;;;4.20;2.88;;;;;;;;;;8334926;28;19927;-60
2023/06/21 12:43:31;;;;;;;5.43;2.70;;;;;;;;;;8328773;28;20034;-60
2023/06/21 12:47:32;;;;;;;4.03;3.07;;;;;;;;;;8358360;28;20139;-60
2023/06/21 12:51:36;;;;;;;4.40;2.72;;;;;;;;;;8359183;28;20809;-60
2023/06/21 12:55:45;;;;;;;4.47;2.92;;;;;;;;;;8359593;28;20554;-61
2023/06/21 12:59:45;;;;;;;4.03;3.05;;;;;;;;;;8361283;28;20019;-60
2023/06/21 13:03:45;;;;;;;3.00;2.70;;;;;;;;;;8356019;28;20254;-61
2023/06/21 13:07:45;;;;;;;4.45;2.85;;;;;;;;;;8357621;28;20962;-61
2023/06/21 13:11:46;;;;;;;3.90;3.20;;;;;;;;;;8364651;28;20033;-60
2023/06/21 13:15:46;;;;;;;2.97;2.77;;;;;;;;;;8362081;28;20056;-61
2023/06/21 13:19:46;;;;;;;4.43;3.10;;;;;;;;;;8367309;28;20129;-60
2023/06/21 13:23:47;;;;;;;3.65;3.15;;;;;;;;;;8362879;28;20027;-61
2023/06/21 13:27:47;;;;;;;3.70;2.83;;;;;;;;;;8362502;28;20055;-61
2023/06/21 13:31:49;;;;;;;2.90;2.70;;;;;;;;;;8362470;28;20271;-61
2023/06/21 13:35:49;;;;;;;3.88;2.55;;;;;;;;;;8361187;28;20032;-61
2023/06/21 13:39:49;;;;;;;4.55;2.78;;;;;;;;;;8358533;28;20792;-60
2023/06/21 13:43:49;;;;;;;4.32;3.05;;;;;;;;;;8342281;28;20025;-60
2023/06/21 13:47:49;;;;;;;2.90;2.67;;;;;;;;;;8325312;28;20037;-61
2023/06/21 13:51:50;;;;;;;3.40;2.70;;;;;;;;;;8327844;28;21222;-60
2023/06/21 13:55:50;;;;;;;4.77;3.03;;;;;;;;;;8326508;28;21185;-60
2023/06/21 13:59:50;;;;;;;2.80;2.60;;;;;;;;;;8329359;28;20032;-60
2023/06/21 14:03:51;;;;;;;3.33;2.77;;;;;;;;;;8331090;28;20107;-60
2023/06/21 14:07:51;;;;;;;3.30;2.93;;;;;;;;;;8331464;28;20404;-60
2023/06/21 14:11:51;;;;;;;4.17;2.87;;;;;;;;;;8329568;28;22191;-60
2023/06/21 14:15:51;;;;;;;2.97;2.65;;;;;;;;;;8325515;28;20076;-60
2023/06/21 14:19:52;;;;;;;3.00;2.70;;;;;;;;;;8329326;28;20032;-61
2023/06/21 14:23:52;;;;;;;3.15;2.85;;;;;;;;;;8327360;28;20494;-61
2023/06/21 14:27:52;;;;;;;3.90;2.70;;;;;;;;;;8340575;28;20028;-61
2023/06/21 14:31:53;;;;;;;3.20;2.67;;;;;;;;;;8336629;28;20063;-60
2023/06/21 14:35:53;;;;;;;2.83;2.60;;;;;;;;;;8333210;28;20017;-61
2023/06/21 14:39:54;;;;;;;3.03;2.78;;;;;;;;;;8334361;28;20027;-61
2023/06/21 14:43:54;;;;;;;3.78;2.80;;;;;;;;;;8338212;28;20083;-61
2023/06/21 14:47:55;;;;;;;2.95;2.75;;;;;;;;;;8331089;28;20029;-61
2023/06/21 14:51:55;;;;;;;2.88;2.60;;;;;;;;;;8335313;28;20865;-60
2023/06/21 14:55:55;;;;;;;3.13;2.87;;;;;;;;;;8335031;28;20098;-60
2023/06/21 14:59:56;;;;;;;3.20;2.90;;;;;;;;;;8333042;28;20029;-60
2023/06/21 15:03:56;;;;;;;4.03;2.70;;;;;;;;;;8332640;28;20036;-61
2023/06/21 15:07:57;;;;;;;2.80;2.60;;;;;;;;;;8314497;28;20882;-61
2023/06/21 15:11:57;;;;;;;3.30;3.00;;;;;;;;;;8334019;28;20471;-61
2023/06/21 15:15:57;;;;;;;3.85;3.00;;;;;;;;;;8332572;28;21032;-60
2023/06/21 15:19:57;;;;;;;3.55;2.92;;;;;;;;;;8333498;28;20040;-61
2023/06/21 15:23:58;;;;;;;3.45;3.05;;;;;;;;;;8332177;28;20020;-61
2023/06/21 15:27:58;;;;;;;3.30;3.00;;;;;;;;;;8332779;28;20159;-61
2023/06/21 15:31:59;;;;;;;3.57;2.63;;;;;;;;;;8332101;28;20904;-60
2023/06/21 15:35:59;;;;;;;3.20;2.90;;;;;;;;;;8328764;28;20021;-61
2023/06/21 15:39:59;;;;;;;3.37;2.97;;;;;;;;;;8329136;28;20041;-60
2023/06/21 15:44:00;;;;;;;2.88;2.60;;;;;;;;;;8333072;28;20056;-61
2023/06/21 15:48:00;;;;;;;6.30;2.90;;;;;;;;;;8331119;28;20033;-61
2023/06/21 15:52:00;;;;;;;3.03;2.78;;;;;;;;;;8336114;28;21085;-61
2023/06/21 15:56:00;;;;;;;4.70;2.53;;;;;;;;;;8334762;28;20021;-61
2023/06/21 16:00:01;;;;;;;4.15;3.10;;;;;;;;;;8331410;28;20032;-60
2023/06/21 16:04:01;;;;;;;5.87;2.53;;;;;;;;;;8330775;28;20040;-60
2023/06/21 16:08:01;;;;;;;4.65;2.92;;;;;;;;;;8329291;28;20028;-61
2023/06/21 16:12:02;;;;;;;4.97;2.80;;;;;;;;;;8330763;28;20055;-61
2023/06/21 16:16:02;;;;;;;3.30;3.00;;;;;;;;;;8334555;28;20148;-61
2023/06/21 16:20:02;;;;;;;3.23;2.80;;;;;;;;;;8335887;28;20025;-61
2023/06/21 16:24:03;;;;;;;3.87;3.07;;;;;;;;;;8331619;28;20021;-61
2023/06/21 16:28:03;;;;;;;5.18;3.08;;;;;;;;;;8327845;28;20036;-60
2023/06/21 16:32:03;;;;;;;3.30;2.90;;;;;;;;;;8322954;28;20025;-60
2023/06/21 16:36:03;;;;;;;4.17;2.90;;;;;;;;;;8329305;28;20021;-60
2023/06/21 16:40:04;;;;;;;3.13;2.80;;;;;;;;;;8328090;28;20036;-61
2023/06/21 16:44:04;;;;;;;4.97;3.17;;;;;;;;;;8327761;28;20025;-61
2023/06/21 16:48:05;;;;;;;4.40;3.20;;;;;;;;;;8328049;28;20063;-61
2023/06/21 16:52:05;;;;;;;4.57;3.22;;;;;;;;;;8336305;28;20159;-60
2023/06/21 16:56:05;;;;;;;3.55;3.22;;;;;;;;;;8326859;28;20724;-60
2023/06/21 17:00:06;;;;;;;4.13;3.15;;;;;;;;;;8329498;28;20137;-60
2023/06/21 17:04:06;;;;;;;3.20;2.97;;;;;;;;;;8330196;28;20012;-60
2023/06/21 17:08:06;;;;;;;3.00;2.75;;;;;;;;;;8328916;28;20044;-60
2023/06/21 17:12:09;;;;;;;3.73;3.10;;;;;;;;;;8330702;28;20118;-60
2023/06/21 17:16:09;;;;;;;3.30;3.00;;;;;;;;;;8327886;28;20923;-59
2023/06/21 17:20:10;;;;;;;3.47;3.17;;;;;;;;;;8331286;28;20036;-59
2023/06/21 17:24:10;;;;;;;4.60;2.92;;;;;;;;;;8330289;28;20984;-59
2023/06/21 17:28:10;;;;;;;4.20;3.05;;;;;;;;;;8330954;28;20036;-59
2023/06/21 17:32:10;;;;;;;3.67;2.80;;;;;;;;;;8326303;28;20033;-60
2023/06/21 17:36:11;;;;;;;3.40;3.10;;;;;;;;;;8327849;28;20024;-59
2023/06/21 17:40:11;;;;;;;5.35;2.83;;;;;;;;;;8328787;28;20033;-61
2023/06/21 17:44:11;;;;;;;3.20;2.90;;;;;;;;;;8324813;28;20079;-61
2023/06/21 17:48:12;;;;;;;2.83;2.63;;;;;;;;;;8328992;28;20041;-61
2023/06/21 17:52:12;;;;;;;3.40;3.07;;;;;;;;;;8328165;28;20550;-61
2023/06/21 17:56:12;;;;;;;3.55;3.00;;;;;;;;;;8329893;28;20043;-60
2023/06/21 18:00:13;;;;;;;3.05;2.75;;;;;;;;;;8330321;28;20021;-61
2023/06/21 18:04:13;;;;;;;2.85;2.65;;;;;;;;;;8336088;28;20024;-61
2023/06/21 18:08:13;;;;;;;3.08;2.88;;;;;;;;;;8330221;28;20028;-62
2023/06/21 18:12:14;;;;;;;3.63;2.77;;;;;;;;;;8340022;28;20029;-61
2023/06/21 18:16:15;;;;;;;3.33;3.03;;;;;;;;;;8333156;28;20729;-60
2023/06/21 18:20:15;;;;;;;3.35;2.90;;;;;;;;;;8337290;28;20090;-61
2023/06/21 18:24:15;;;;;;;3.27;2.97;;;;;;;;;;8330330;28;20055;-61
2023/06/21 18:28:15;;;;;;;3.22;2.92;;;;;;;;;;8334640;28;20154;-61
2023/06/21 18:32:16;;;;;;;3.65;2.85;;;;;;;;;;8338708;28;20617;-61
2023/06/21 18:36:16;;;;;;;3.20;2.90;;;;;;;;;;8333007;28;20787;-60
2023/06/21 18:40:16;;;;;;;3.03;2.75;;;;;;;;;;8339278;28;20140;-60
2023/06/21 18:44:17;;;;;;;3.35;3.05;;;;;;;;;;8337156;28;20025;-61
2023/06/21 18:48:17;;;;;;;4.10;3.10;;;;;;;;;;8337459;28;20085;-61
2023/06/21 18:52:17;;;;;;;3.05;2.70;;;;;;;;;;8336116;28;20047;-60
2023/06/21 18:56:17;;;;;;;3.40;3.10;;;;;;;;;;8344714;28;20035;-60
2023/06/21 19:00:18;;;;;;;3.03;2.83;;;;;;;;;;8343877;28;20017;-61
2023/06/21 19:04:18;;;;;;;4.45;2.90;;;;;;;;;;8343684;28;20692;-60
2023/06/21 19:08:18;;;;;;;3.65;3.35;;;;;;;;;;8343763;28;20078;-60
2023/06/21 19:12:20;;;;;;;3.35;2.90;;;;;;;;;;8342550;28;20100;-60
2023/06/21 19:16:20;;;;;;;4.30;3.90;;;;;;;;;;8341634;28;20044;-60
2023/06/21 19:20:20;;;;;;;6.67;3.87;;;;;;;;;;8331917;28;20036;-61
2023/06/21 19:24:20;;;;;;;4.63;3.70;;;;;;;;;;8333507;28;20340;-60
2023/06/21 19:28:23;;;;;;;5.97;3.80;;;;;;;;;;8331163;28;20283;-60
2023/06/21 19:32:23;;;;;;;5.40;3.80;;;;;;;;;;8331527;28;20205;-60
2023/06/21 19:36:24;;;;;;;3.70;3.40;;;;;;;;;;8330487;28;20643;-60
2023/06/21 19:40:25;;;;;;;4.63;3.75;;;;;;;;;;8326601;28;20055;-60
2023/06/21 19:44:25;;;;;;;4.97;3.83;;;;;;;;;;8329856;28;20037;-60
2023/06/21 19:48:25;;;;;;;4.38;3.95;;;;;;;;;;8330177;28;20042;-60
2023/06/21 19:52:25;;;;;;;4.32;3.80;;;;;;;;;;8332081;28;20029;-60
2023/06/21 19:56:26;;;;;;;4.10;3.63;;;;;;;;;;8327352;28;20066;-60
2023/06/21 20:00:26;;;;;;;4.43;4.03;;;;;;;;;;8330689;28;20040;-61
2023/06/21 20:04:26;;;;;;;4.95;3.78;;;;;;;;;;8334011;28;21144;-60
2023/06/21 20:08:26;;;;;;;5.25;3.42;;;;;;;;;;8329473;28;20456;-60
2023/06/21 20:12:28;;;;;;;4.03;3.63;;;;;;;;;;8335713;28;20060;-60
2023/06/21 20:16:28;;;;;;;4.07;3.33;;;;;;;;;;8332926;28;20064;-60
2023/06/21 20:20:28;;;;;;;4.30;3.88;;;;;;;;;;8331106;28;20037;-60
2023/06/21 20:24:29;;;;;;;4.18;3.78;;;;;;;;;;8333326;28;20429;-60
2023/06/21 20:28:29;;;;;;;4.40;3.90;;;;;;;;;;8334069;28;20466;-60
2023/06/21 20:32:29;;;;;;;4.13;3.73;;;;;;;;;;8340772;28;20025;-60
2023/06/21 20:36:32;;;;;;;4.13;3.80;;;;;;;;;;8333732;28;20493;-61
2023/06/21 20:40:33;;;;;;;5.40;3.97;;;;;;;;;;8333693;28;20055;-60
2023/06/21 20:44:33;;;;;;;4.57;4.18;;;;;;;;;;8334072;28;20025;-60
2023/06/21 20:48:33;;;;;;;5.40;3.80;;;;;;;;;;8331381;28;20120;-60
2023/06/21 20:52:33;;;;;;;3.90;3.50;;;;;;;;;;8332332;28;20032;-60
2023/06/21 20:56:34;;;;;;;3.97;3.47;;;;;;;;;;8331336;28;20465;-60
2023/06/21 21:00:35;;;;;;;5.00;4.17;;;;;;;;;;8331833;28;20056;-59
2023/06/21 21:04:35;;;;;;;6.30;4.30;;;;;;;;;;8335615;28;20029;-60
2023/06/21 21:08:37;;;;;;;4.90;4.40;;;;;;;;;;8328105;28;20051;-61
2023/06/21 21:12:37;;;;;;;5.00;4.35;;;;;;;;;;8333197;28;20063;-60
2023/06/21 21:16:37;;;;;;;4.95;4.30;;;;;;;;;;8332876;28;20040;-60
2023/06/21 21:20:38;;;;;;;4.70;3.92;;;;;;;;;;8335575;28;20188;-60
2023/06/21 21:24:38;;;;;;;5.85;4.05;;;;;;;;;;8334147;28;20951;-60
2023/06/21 21:28:39;;;;;;;6.60;4.20;;;;;;;;;;8334673;28;22128;-60
2023/06/21 21:32:39;;;;;;;4.30;3.90;;;;;;;;;;8331229;28;20394;-60
2023/06/21 21:36:39;;;;;;;4.85;4.05;;;;;;;;;;8334879;28;20013;-60
2023/06/21 21:40:39;;;;;;;6.37;4.40;;;;;;;;;;8342128;28;20123;-60
2023/06/21 21:44:39;;;;;;;4.63;3.80;;;;;;;;;;8342122;28;20784;-60
2023/06/21 21:48:40;;;;;;;5.75;3.65;;;;;;;;;;8337778;28;20673;-60
2023/06/21 21:52:40;;;;;;;4.70;3.50;;;;;;;;;;8338603;28;20048;-60
2023/06/21 21:56:40;;;;;;;3.85;3.50;;;;;;;;;;8337686;28;20254;-60
2023/06/21 22:00:41;;;;;;;3.83;3.53;;;;;;;;;;8337127;28;20044;-60
2023/06/21 22:04:44;;;;;;;3.92;3.53;;;;;;;;;;8337381;28;20032;-60
2023/06/21 22:08:44;;;;;;;4.18;3.33;;;;;;;;;;8338009;28;20093;-60
2023/06/21 22:12:44;;;;;;;4.22;3.83;;;;;;;;;;8342390;28;20064;-60
2023/06/21 22:16:49;;;;;;;4.53;3.42;;;;;;;;;;8337125;28;20021;-60
2023/06/21 22:20:51;;;;;;;4.75;3.90;;;;;;;;;;8343455;28;20028;-60
2023/06/21 22:24:51;;;;;;;5.00;3.72;;;;;;;;;;8347557;28;20356;-60
2023/06/21 22:28:51;;;;;;;4.00;3.60;;;;;;;;;;8337326;28;20032;-60
2023/06/21 22:32:52;;;;;;;4.50;3.42;;;;;;;;;;8335789;28;20036;-60
2023/06/21 22:36:52;;;;;;;4.07;3.50;;;;;;;;;;8333578;28;20025;-59
2023/06/21 22:40:53;;;;;;;5.35;3.60;;;;;;;;;;8333925;28;20139;-60
2023/06/21 22:44:53;;;;;;;6.43;3.70;;;;;;;;;;8338194;28;20166;-60
2023/06/21 22:49:00;;;;;;;4.43;3.88;;;;;;;;;;8335109;28;20449;-60
2023/06/21 22:53:00;;;;;;;5.07;4.15;;;;;;;;;;8336786;28;20032;-60
2023/06/21 22:57:01;;;;;;;5.65;3.95;;;;;;;;;;8339100;28;20020;-60
2023/06/21 23:01:02;;;;;;;5.57;4.23;;;;;;;;;;8337368;28;20037;-60
2023/06/21 23:05:03;;;;;;;5.60;4.00;;;;;;;;;;8339218;28;20363;-60
2023/06/21 23:09:03;;;;;;;5.72;4.00;;;;;;;;;;8336180;28;20038;-60
2023/06/21 23:13:06;;;;;;;4.95;4.15;;;;;;;;;;8334110;28;20033;-60
2023/06/21 23:17:09;;;;;;;4.68;3.67;;;;;;;;;;8338161;28;20041;-60
2023/06/21 23:21:10;;;;;;;5.43;3.67;;;;;;;;;;8336812;28;20036;-60
2023/06/21 23:25:11;;;;;;;5.07;3.67;;;;;;;;;;8337409;28;20082;-60
2023/06/21 23:29:11;;;;;;;4.32;3.72;;;;;;;;;;8333901;28;20054;-60
2023/06/21 23:33:11;;;;;;;4.13;3.73;;;;;;;;;;8335082;28;20029;-60
2023/06/21 23:37:12;;;;;;;5.18;3.53;;;;;;;;;;8337712;28;20027;-60
2023/06/21 23:41:12;;;;;;;4.88;3.38;;;;;;;;;;8334842;28;20032;-60
2023/06/21 23:45:13;;;;;;;4.18;3.78;;;;;;;;;;8338045;28;20995;-60
2023/06/21 23:49:13;;;;;;;4.00;3.30;;;;;;;;;;8334233;28;20031;-60
2023/06/21 23:53:13;;;;;;;4.13;3.72;;;;;;;;;;8335452;28;20114;-60
2023/06/21 23:57:13;;;;;;;4.50;3.75;;;;;;;;;;8337916;28;20512;-60
